WetterOnline ( https://www.wetteronline.de )

Wetter aktuell Freudenstadt

Aktuelles Wetter: Freudenstadt (801m)

6-stündlich | Neueste Meldungen
Ortszeit Temperatur Wetter
Do, 29.09. 2:00 5.6° C bedeckt
Mi, 28.09. 20:00 5.9° C wolkig
Mi, 28.09. 14:00 7.4° C wolkig
Mi, 28.09. 8:00 6.4° C leichter Regen
Mi, 28.09. 2:00 6.4° C Regen
Di, 27.09. 20:00 4.5° C Regen
Di, 27.09. 14:00 5.8° C leichter Regen
Di, 27.09. 8:00 4.7° C leichter Regen
Ortszeit Temperatur Wetter
Do, 29.09. 6:00 3.2° C Nebel
Do, 29.09. 5:50 3.2° C bewölkt
Do, 29.09. 5:40 3.1° C Dunst
Do, 29.09. 5:30 3.5° C Nebel
Do, 29.09. 5:20 3.5° C wolkig
Do, 29.09. 5:10 3.7° C bedeckt
Do, 29.09. 5:00 4.2° C Nebel
Do, 29.09. 4:30 4.8° C bedeckt
Do, 29.09. 4:00 5.0° C Nebel
Do, 29.09. 3:30 5.0° C Nebel
Do, 29.09. 3:00 4.7° C Nebel
Ortszeit Relative Feuchte Sichtweite
Do, 29.09. 2:00 93% 29 km
Mi, 28.09. 20:00 93% 35 km
Mi, 28.09. 14:00 81% >70 km
Mi, 28.09. 8:00 94% 12 km
Mi, 28.09. 2:00 94% 10 km
Di, 27.09. 20:00 91% 5.0 km
Di, 27.09. 14:00 93% 7 km
Di, 27.09. 8:00 93% 5.0 km
Ortszeit Relative Feuchte Sichtweite
Do, 29.09. 6:00 97% 20 km
Do, 29.09. 5:50 97% -
Do, 29.09. 5:40 97% -
Do, 29.09. 5:30 96% 12 km
Do, 29.09. 5:20 96% -
Do, 29.09. 5:10 97% -
Do, 29.09. 5:00 95% 0.5 km
Do, 29.09. 4:30 96% 25 km
Do, 29.09. 4:00 97% 23 km
Do, 29.09. 3:30 96% 16 km
Do, 29.09. 3:00 95% 1.2 km
Ortszeit Niederschlagsmenge Niederschlagsart
Do, 29.09. 2:00 0.0 l/m2 in 6 Std. -
Mi, 28.09. 20:00 0.4 l/m2 in 12 Std. Regen
Mi, 28.09. 14:00 0.3 l/m2 in 6 Std. Regen
Mi, 28.09. 8:00 21 l/m2 in 12 Std. Regen
Mi, 28.09. 2:00 9 l/m2 in 6 Std. Regen
Di, 27.09. 20:00 14 l/m2 in 12 Std. Regen
Di, 27.09. 14:00 8 l/m2 in 6 Std. Regen
Di, 27.09. 8:00 25 l/m2 in 12 Std. Regen
Ortszeit Niederschlagsmenge Niederschlagsart
Do, 29.09. 6:00 0.0 l/m2 in 1 Std. -
Do, 29.09. 5:50 keine Meldung -
Do, 29.09. 5:40 keine Meldung -
Do, 29.09. 5:30 0.0 l/m2 in 1 Std. -
Do, 29.09. 5:20 keine Meldung -
Do, 29.09. 5:10 keine Meldung -
Do, 29.09. 5:00 0.0 l/m2 in 1 Std. -
Do, 29.09. 4:30 0.0 l/m2 in 1 Std. -
Do, 29.09. 4:00 0.0 l/m2 in 1 Std. -
Do, 29.09. 3:30 0.0 l/m2 in 1 Std. -
Do, 29.09. 3:00 0.0 l/m2 in 1 Std. -
Ortszeit Stärke Spitze Richtung
km/h Bft. km/h Grad Sektor
Do, 29.09. 2:00 7 2 22 240° SW
Mi, 28.09. 20:00 11 2 25 220° SW
Mi, 28.09. 14:00 17 3 41 280° W
Mi, 28.09. 8:00 22 4 56 270° W
Mi, 28.09. 2:00 13 3 46 250° W
Di, 27.09. 20:00 31 5 56 280° W
Di, 27.09. 14:00 14 3 47 260° W
Di, 27.09. 8:00 30 5 57 270° W
Ortszeit Stärke Spitze Richtung
km/h Bft. km/h Grad Sektor
Do, 29.09. 6:00 4 1 7 140° SO
Do, 29.09. 5:50 4 1 - 140° SO
Do, 29.09. 5:40 4 1 - 160° S
Do, 29.09. 5:30 2 1 9 180° S
Do, 29.09. 5:20 2 1 - 180° S
Do, 29.09. 5:10 7 2 - 220° SW
Do, 29.09. 5:00 4 1 7 190° S
Do, 29.09. 4:30 4 1 7 230° SW
Do, 29.09. 4:00 4 1 7 270° W
Do, 29.09. 3:30 2 1 6 270° W
Do, 29.09. 3:00 2 1 17 220° SW
Ortszeit Untergrenze Bedeckung Gattung
total tief tief mittel hoch
Do, 29.09. 2:00 1080 m 8/8 8/8 - - -
Mi, 28.09. 20:00 270 m 8/8 1/8 - - -
Mi, 28.09. 14:00 540 m 8/8 1/8 - - -
Mi, 28.09. 8:00 240 m 8/8 8/8 - - -
Mi, 28.09. 2:00 180 m 7/8 7/8 - - -
Di, 27.09. 20:00 300 m 8/8 8/8 - - -
Di, 27.09. 14:00 240 m 7/8 7/8 - - -
Di, 27.09. 8:00 300 m 8/8 8/8 - - -
Ortszeit Bedeckungsgrad in Achtel und Wolkenuntergrenze
Do, 29.09. 6:00 4(270m) 8(4800m) 8(6900m)
Do, 29.09. 5:50 4(270m) 8(4800m) 8(6900m)
Do, 29.09. 5:40 8
Do, 29.09. 5:30 1(<30m) 8(5100m)
Do, 29.09. 5:20 1(<30m) 1(3600m) 8(5100m)
Do, 29.09. 5:10 8
Do, 29.09. 5:00 3(1170m) 8(5100m) 8(6600m)
Do, 29.09. 4:30 3(1110m) 8(1500m) 8(2100m)
Do, 29.09. 4:00 6(960m) 8(1380m) 8(1500m)
Do, 29.09. 3:30 3(90m) 8(1470m) 8(1800m)
Do, 29.09. 3:00 4(60m) 8(2100m) 8(5400m)
Ortszeit Stationsdruck (hPa) Tendenz (hPa in 3 Std.)
Do, 29.09. 2:00 910 - 0,5
Mi, 28.09. 20:00 909 + 0,6
Mi, 28.09. 14:00 908 + 0,4
Mi, 28.09. 8:00 906 + 0,2
Mi, 28.09. 2:00 908 - 2,6
Di, 27.09. 20:00 911 + 0,9
Di, 27.09. 14:00 911 - 0,8
Di, 27.09. 8:00 910 + 1,3
Ortszeit Stationsdruck (hPa) Tendenz (hPa in 3 Std.)
Do, 29.09. 6:00 909 - 0,4
Do, 29.09. 5:50 909 keine Meldung
Do, 29.09. 5:40 909 keine Meldung
Do, 29.09. 5:30 909 - 0,6
Do, 29.09. 5:20 909 keine Meldung
Do, 29.09. 5:10 909 keine Meldung
Do, 29.09. 5:00 909 - 0,5
Do, 29.09. 4:30 909 - 0,4
Do, 29.09. 4:00 909 - 0,4
Do, 29.09. 3:30 909 - 0,5
Do, 29.09. 3:00 910 - 0,5
Ortszeit Schneehöhe (cm)
Do, 29.09. 2:00 0
Mi, 28.09. 20:00 0
Mi, 28.09. 14:00 0
Mi, 28.09. 8:00 0
Mi, 28.09. 2:00 0
Di, 27.09. 20:00 0
Di, 27.09. 14:00 0
Di, 27.09. 8:00 0
Ortszeit Schneehöhe (cm)
Do, 29.09. 6:00 0
Do, 29.09. 5:50 0
Do, 29.09. 5:40 0
Do, 29.09. 5:30 0
Do, 29.09. 5:20 0
Do, 29.09. 5:10 0
Do, 29.09. 5:00 0
Do, 29.09. 4:30 0
Do, 29.09. 4:00 0
Do, 29.09. 3:30 0
Do, 29.09. 3:00 0
Link zu dieser Seite / Seite empfehlen

Das Wetter in ...